sensor_id;sensor_type;location;lat;lon;timestamp;temperature;humidity
64869;DHT22;51349;52.424;10.840;2022-11-24T00:04:36;3.80;99.90
64869;DHT22;51349;52.424;10.840;2022-11-24T00:09:37;3.70;99.90
64869;DHT22;51349;52.424;10.840;2022-11-24T00:14:37;3.50;99.90
64869;DHT22;51349;52.424;10.840;2022-11-24T00:19:38;3.30;99.90
64869;DHT22;51349;52.424;10.840;2022-11-24T00:24:39;3.60;99.90
64869;DHT22;51349;52.424;10.840;2022-11-24T00:29:39;3.50;99.90
64869;DHT22;51349;52.424;10.840;2022-11-24T00:34:40;3.30;99.90
64869;DHT22;51349;52.424;10.840;2022-11-24T00:39:41;3.50;99.90
64869;DHT22;51349;52.424;10.840;2022-11-24T00:44:41;3.60;99.90
64869;DHT22;51349;52.424;10.840;2022-11-24T00:49:42;3.70;99.90
64869;DHT22;51349;52.424;10.840;2022-11-24T00:54:43;3.60;99.90
64869;DHT22;51349;52.424;10.840;2022-11-24T00:59:43;3.70;99.90
64869;DHT22;51349;52.424;10.840;2022-11-24T01:04:44;3.90;99.90
64869;DHT22;51349;52.424;10.840;2022-11-24T01:09:44;3.90;99.90
64869;DHT22;51349;52.424;10.840;2022-11-24T01:14:45;3.90;99.90
64869;DHT22;51349;52.424;10.840;2022-11-24T01:19:45;3.90;99.90
64869;DHT22;51349;52.424;10.840;2022-11-24T01:24:48;3.80;99.90
64869;DHT22;51349;52.424;10.840;2022-11-24T01:29:48;3.70;99.90
64869;DHT22;51349;52.424;10.840;2022-11-24T01:34:49;3.70;99.90
64869;DHT22;51349;52.424;10.840;2022-11-24T01:39:49;3.80;99.90
64869;DHT22;51349;52.424;10.840;2022-11-24T01:45:27;3.80;99.90
64869;DHT22;51349;52.424;10.840;2022-11-24T01:50:29;3.90;99.90
64869;DHT22;51349;52.424;10.840;2022-11-24T01:55:34;3.80;99.90
64869;DHT22;51349;52.424;10.840;2022-11-24T02:00:37;3.80;99.90
64869;DHT22;51349;52.424;10.840;2022-11-24T02:11:01;3.80;99.90
64869;DHT22;51349;52.424;10.840;2022-11-24T02:16:05;3.80;99.90
64869;DHT22;51349;52.424;10.840;2022-11-24T02:21:08;3.80;99.90
64869;DHT22;51349;52.424;10.840;2022-11-24T02:31:25;3.80;99.90
64869;DHT22;51349;52.424;10.840;2022-11-24T02:36:26;3.70;99.90
64869;DHT22;51349;52.424;10.840;2022-11-24T02:41:27;3.60;99.90
64869;DHT22;51349;52.424;10.840;2022-11-24T02:46:28;3.70;99.90
64869;DHT22;51349;52.424;10.840;2022-11-24T02:51:29;3.70;99.90
64869;DHT22;51349;52.424;10.840;2022-11-24T02:56:30;3.60;99.90
64869;DHT22;51349;52.424;10.840;2022-11-24T03:01:30;3.60;99.90
64869;DHT22;51349;52.424;10.840;2022-11-24T03:06:31;3.80;99.90
64869;DHT22;51349;52.424;10.840;2022-11-24T03:11:31;4.40;99.90
64869;DHT22;51349;52.424;10.840;2022-11-24T03:16:32;4.30;99.90
64869;DHT22;51349;52.424;10.840;2022-11-24T03:21:35;4.40;99.90
64869;DHT22;51349;52.424;10.840;2022-11-24T03:26:36;4.30;99.90
64869;DHT22;51349;52.424;10.840;2022-11-24T03:31:36;4.00;99.90
64869;DHT22;51349;52.424;10.840;2022-11-24T03:36:37;3.70;99.90
64869;DHT22;51349;52.424;10.840;2022-11-24T03:41:38;3.70;99.90
64869;DHT22;51349;52.424;10.840;2022-11-24T03:46:38;3.60;99.90
64869;DHT22;51349;52.424;10.840;2022-11-24T03:51:39;3.80;99.90
64869;DHT22;51349;52.424;10.840;2022-11-24T03:56:39;3.90;99.90
64869;DHT22;51349;52.424;10.840;2022-11-24T04:01:40;3.80;99.90
64869;DHT22;51349;52.424;10.840;2022-11-24T04:06:40;3.70;99.90
64869;DHT22;51349;52.424;10.840;2022-11-24T04:11:41;3.70;99.90
64869;DHT22;51349;52.424;10.840;2022-11-24T04:17:02;3.70;99.90
64869;DHT22;51349;52.424;10.840;2022-11-24T04:22:03;3.70;99.90
64869;DHT22;51349;52.424;10.840;2022-11-24T04:27:04;3.70;99.90
64869;DHT22;51349;52.424;10.840;2022-11-24T04:32:04;3.80;99.90
64869;DHT22;51349;52.424;10.840;2022-11-24T04:37:05;3.80;99.90
64869;DHT22;51349;52.424;10.840;2022-11-24T04:42:05;3.80;99.90
64869;DHT22;51349;52.424;10.840;2022-11-24T04:47:06;3.80;99.90
64869;DHT22;51349;52.424;10.840;2022-11-24T04:52:07;3.90;99.90
64869;DHT22;51349;52.424;10.840;2022-11-24T04:57:21;3.90;99.90
64869;DHT22;51349;52.424;10.840;2022-11-24T05:02:22;3.80;99.90
64869;DHT22;51349;52.424;10.840;2022-11-24T05:07:22;3.90;99.90
64869;DHT22;51349;52.424;10.840;2022-11-24T05:12:23;4.00;99.90
64869;DHT22;51349;52.424;10.840;2022-11-24T05:17:27;3.90;99.90
64869;DHT22;51349;52.424;10.840;2022-11-24T05:22:28;3.90;99.90
64869;DHT22;51349;52.424;10.840;2022-11-24T05:27:29;3.90;99.90
64869;DHT22;51349;52.424;10.840;2022-11-24T05:32:29;4.10;99.90
64869;DHT22;51349;52.424;10.840;2022-11-24T05:37:30;4.70;99.90
64869;DHT22;51349;52.424;10.840;2022-11-24T05:42:31;5.30;99.90
64869;DHT22;51349;52.424;10.840;2022-11-24T05:47:40;5.40;99.90
64869;DHT22;51349;52.424;10.840;2022-11-24T05:52:41;5.50;99.90
64869;DHT22;51349;52.424;10.840;2022-11-24T05:57:42;5.70;99.90
64869;DHT22;51349;52.424;10.840;2022-11-24T06:02:43;5.90;99.90
64869;DHT22;51349;52.424;10.840;2022-11-24T06:07:43;6.00;99.90
64869;DHT22;51349;52.424;10.840;2022-11-24T06:12:44;6.00;99.90
64869;DHT22;51349;52.424;10.840;2022-11-24T06:17:54;6.00;99.90
64869;DHT22;51349;52.424;10.840;2022-11-24T06:22:58;6.00;99.90
64869;DHT22;51349;52.424;10.840;2022-11-24T06:28:02;6.00;99.90
64869;DHT22;51349;52.424;10.840;2022-11-24T06:33:03;6.00;99.90
64869;DHT22;51349;52.424;10.840;2022-11-24T06:38:04;6.10;99.90
64869;DHT22;51349;52.424;10.840;2022-11-24T06:43:04;6.10;99.90
64869;DHT22;51349;52.424;10.840;2022-11-24T06:48:05;6.20;99.90
64869;DHT22;51349;52.424;10.840;2022-11-24T06:53:06;6.30;99.90
64869;DHT22;51349;52.424;10.840;2022-11-24T06:58:07;6.20;99.90
64869;DHT22;51349;52.424;10.840;2022-11-24T07:03:15;6.30;99.90
64869;DHT22;51349;52.424;10.840;2022-11-24T07:08:16;6.30;99.90
64869;DHT22;51349;52.424;10.840;2022-11-24T07:13:17;6.30;99.90
64869;DHT22;51349;52.424;10.840;2022-11-24T07:18:17;6.30;99.90
64869;DHT22;51349;52.424;10.840;2022-11-24T07:23:18;6.30;99.90
64869;DHT22;51349;52.424;10.840;2022-11-24T07:28:18;6.10;99.90
64869;DHT22;51349;52.424;10.840;2022-11-24T07:33:19;6.00;99.90
64869;DHT22;51349;52.424;10.840;2022-11-24T07:38:24;6.10;99.90
64869;DHT22;51349;52.424;10.840;2022-11-24T07:43:25;6.20;99.90
64869;DHT22;51349;52.424;10.840;2022-11-24T07:48:25;6.10;99.90
64869;DHT22;51349;52.424;10.840;2022-11-24T07:53:27;6.00;99.90
64869;DHT22;51349;52.424;10.840;2022-11-24T07:58:29;6.10;99.90
64869;DHT22;51349;52.424;10.840;2022-11-24T08:03:30;6.20;99.90
64869;DHT22;51349;52.424;10.840;2022-11-24T08:08:30;6.40;99.90
64869;DHT22;51349;52.424;10.840;2022-11-24T08:13:34;6.60;99.90
64869;DHT22;51349;52.424;10.840;2022-11-24T08:18:35;6.70;99.90
64869;DHT22;51349;52.424;10.840;2022-11-24T08:23:36;6.70;99.90
64869;DHT22;51349;52.424;10.840;2022-11-24T08:28:37;6.80;99.90
64869;DHT22;51349;52.424;10.840;2022-11-24T08:33:38;6.90;99.90
64869;DHT22;51349;52.424;10.840;2022-11-24T08:38:39;6.90;99.90
64869;DHT22;51349;52.424;10.840;2022-11-24T08:43:40;7.00;99.90
64869;DHT22;51349;52.424;10.840;2022-11-24T08:48:41;7.00;99.90
64869;DHT22;51349;52.424;10.840;2022-11-24T08:53:42;7.10;99.90
64869;DHT22;51349;52.424;10.840;2022-11-24T08:58:43;7.10;99.90
64869;DHT22;51349;52.424;10.840;2022-11-24T09:03:46;7.20;99.90
64869;DHT22;51349;52.424;10.840;2022-11-24T09:08:47;7.30;99.90
64869;DHT22;51349;52.424;10.840;2022-11-24T09:13:48;7.40;99.90
64869;DHT22;51349;52.424;10.840;2022-11-24T09:18:59;7.40;99.90
64869;DHT22;51349;52.424;10.840;2022-11-24T09:24:00;7.40;99.90
64869;DHT22;51349;52.424;10.840;2022-11-24T09:29:02;7.50;99.90
64869;DHT22;51349;52.424;10.840;2022-11-24T09:34:06;7.50;99.90
64869;DHT22;51349;52.424;10.840;2022-11-24T09:39:07;7.60;99.90
64869;DHT22;51349;52.424;10.840;2022-11-24T09:45:15;7.50;99.90
64869;DHT22;51349;52.424;10.840;2022-11-24T10:00:33;7.70;99.90
64869;DHT22;51349;52.424;10.840;2022-11-24T10:05:35;7.70;99.90
64869;DHT22;51349;52.424;10.840;2022-11-24T10:10:53;7.80;99.90
64869;DHT22;51349;52.424;10.840;2022-11-24T10:21:04;8.00;99.90
64869;DHT22;51349;52.424;10.840;2022-11-24T10:36:44;8.50;99.90
64869;DHT22;51349;52.424;10.840;2022-11-24T10:42:33;8.90;99.90
64869;DHT22;51349;52.424;10.840;2022-11-24T10:47:36;9.20;99.90
64869;DHT22;51349;52.424;10.840;2022-11-24T10:52:43;9.30;99.90
64869;DHT22;51349;52.424;10.840;2022-11-24T10:57:46;9.50;99.90
64869;DHT22;51349;52.424;10.840;2022-11-24T11:02:47;9.40;99.90
64869;DHT22;51349;52.424;10.840;2022-11-24T11:07:48;10.40;99.90
64869;DHT22;51349;52.424;10.840;2022-11-24T11:12:49;11.60;99.90
64869;DHT22;51349;52.424;10.840;2022-11-24T11:17:51;11.80;99.90
64869;DHT22;51349;52.424;10.840;2022-11-24T11:22:59;11.00;99.90
64869;DHT22;51349;52.424;10.840;2022-11-24T11:33:24;11.60;99.90
64869;DHT22;51349;52.424;10.840;2022-11-24T11:38:31;10.60;99.90
64869;DHT22;51349;52.424;10.840;2022-11-24T11:43:38;10.10;99.90
64869;DHT22;51349;52.424;10.840;2022-11-24T11:48:42;10.00;99.90
64869;DHT22;51349;52.424;10.840;2022-11-24T11:54:08;9.90;99.90
64869;DHT22;51349;52.424;10.840;2022-11-24T12:04:51;9.90;99.90
64869;DHT22;51349;52.424;10.840;2022-11-24T12:10:19;10.10;99.90
64869;DHT22;51349;52.424;10.840;2022-11-24T12:42:25;9.80;99.90
64869;DHT22;51349;52.424;10.840;2022-11-24T12:47:39;9.80;99.90
64869;DHT22;51349;52.424;10.840;2022-11-24T12:52:52;9.90;99.90
64869;DHT22;51349;52.424;10.840;2022-11-24T12:58:49;9.80;99.90
64869;DHT22;51349;52.424;10.840;2022-11-24T13:03:33;9.80;99.90
64869;DHT22;51349;52.424;10.840;2022-11-24T13:08:35;10.00;99.90
64869;DHT22;51349;52.424;10.840;2022-11-24T13:19:06;10.50;99.90
64869;DHT22;51349;52.424;10.840;2022-11-24T13:24:23;10.60;99.90
64869;DHT22;51349;52.424;10.840;2022-11-24T13:39:59;10.20;99.90
64869;DHT22;51349;52.424;10.840;2022-11-24T13:45:01;10.10;99.90
64869;DHT22;51349;52.424;10.840;2022-11-24T14:05:55;9.80;99.90
64869;DHT22;51349;52.424;10.840;2022-11-24T14:10:58;9.70;99.90
64869;DHT22;51349;52.424;10.840;2022-11-24T14:26:38;9.70;99.90
64869;DHT22;51349;52.424;10.840;2022-11-24T14:31:39;9.70;99.90
64869;DHT22;51349;52.424;10.840;2022-11-24T14:36:40;9.50;99.90
64869;DHT22;51349;52.424;10.840;2022-11-24T14:47:00;9.40;99.90
64869;DHT22;51349;52.424;10.840;2022-11-24T14:52:06;9.40;99.90
64869;DHT22;51349;52.424;10.840;2022-11-24T15:02:44;9.20;99.90
64869;DHT22;51349;52.424;10.840;2022-11-24T15:08:09;9.10;99.90
64869;DHT22;51349;52.424;10.840;2022-11-24T15:13:22;9.10;99.90
64869;DHT22;51349;52.424;10.840;2022-11-24T15:23:40;9.00;99.90
64869;DHT22;51349;52.424;10.840;2022-11-24T15:28:41;9.00;99.90
64869;DHT22;51349;52.424;10.840;2022-11-24T15:33:41;9.00;99.90
64869;DHT22;51349;52.424;10.840;2022-11-24T15:38:43;8.90;99.90
64869;DHT22;51349;52.424;10.840;2022-11-24T15:43:43;8.90;99.90
64869;DHT22;51349;52.424;10.840;2022-11-24T15:48:44;8.80;99.90
64869;DHT22;51349;52.424;10.840;2022-11-24T15:53:50;8.80;99.90
64869;DHT22;51349;52.424;10.840;2022-11-24T15:58:51;8.80;99.90
64869;DHT22;51349;52.424;10.840;2022-11-24T16:03:52;8.80;99.90
64869;DHT22;51349;52.424;10.840;2022-11-24T16:08:53;8.70;99.90
64869;DHT22;51349;52.424;10.840;2022-11-24T16:13:53;8.60;99.90
64869;DHT22;51349;52.424;10.840;2022-11-24T16:18:54;8.40;99.90
64869;DHT22;51349;52.424;10.840;2022-11-24T16:23:55;8.10;99.90
64869;DHT22;51349;52.424;10.840;2022-11-24T16:28:55;8.00;99.90
64869;DHT22;51349;52.424;10.840;2022-11-24T16:33:56;7.90;99.90
64869;DHT22;51349;52.424;10.840;2022-11-24T16:38:58;7.70;99.90
64869;DHT22;51349;52.424;10.840;2022-11-24T16:43:59;7.50;99.90
64869;DHT22;51349;52.424;10.840;2022-11-24T16:49:00;7.40;99.90
64869;DHT22;51349;52.424;10.840;2022-11-24T16:54:01;7.20;99.90
64869;DHT22;51349;52.424;10.840;2022-11-24T16:59:03;7.10;99.90
64869;DHT22;51349;52.424;10.840;2022-11-24T17:04:03;6.90;99.90
64869;DHT22;51349;52.424;10.840;2022-11-24T17:09:04;6.70;99.90
64869;DHT22;51349;52.424;10.840;2022-11-24T17:14:05;6.50;99.90
64869;DHT22;51349;52.424;10.840;2022-11-24T17:19:05;6.30;99.90
64869;DHT22;51349;52.424;10.840;2022-11-24T17:24:06;6.30;99.90
64869;DHT22;51349;52.424;10.840;2022-11-24T17:29:09;6.20;99.90
64869;DHT22;51349;52.424;10.840;2022-11-24T17:34:11;6.20;99.90
64869;DHT22;51349;52.424;10.840;2022-11-24T17:39:11;6.20;99.90
64869;DHT22;51349;52.424;10.840;2022-11-24T17:44:12;6.00;99.90
64869;DHT22;51349;52.424;10.840;2022-11-24T17:49:13;6.10;99.90
64869;DHT22;51349;52.424;10.840;2022-11-24T17:54:13;6.00;99.90
64869;DHT22;51349;52.424;10.840;2022-11-24T17:59:14;6.10;99.90
64869;DHT22;51349;52.424;10.840;2022-11-24T18:04:15;6.20;99.90
64869;DHT22;51349;52.424;10.840;2022-11-24T18:09:15;6.20;99.90
64869;DHT22;51349;52.424;10.840;2022-11-24T18:14:16;6.30;99.90
64869;DHT22;51349;52.424;10.840;2022-11-24T18:19:16;6.30;99.90
64869;DHT22;51349;52.424;10.840;2022-11-24T18:24:17;6.30;99.90
64869;DHT22;51349;52.424;10.840;2022-11-24T18:29:18;6.30;99.90
64869;DHT22;51349;52.424;10.840;2022-11-24T18:34:18;6.40;99.90
64869;DHT22;51349;52.424;10.840;2022-11-24T18:39:19;6.40;99.90
64869;DHT22;51349;52.424;10.840;2022-11-24T18:44:20;6.50;99.90
64869;DHT22;51349;52.424;10.840;2022-11-24T18:49:20;6.60;99.90
64869;DHT22;51349;52.424;10.840;2022-11-24T18:54:21;6.50;99.90
64869;DHT22;51349;52.424;10.840;2022-11-24T18:59:21;6.50;99.90
64869;DHT22;51349;52.424;10.840;2022-11-24T19:04:22;6.50;99.90
64869;DHT22;51349;52.424;10.840;2022-11-24T19:09:26;6.50;99.90
64869;DHT22;51349;52.424;10.840;2022-11-24T19:14:27;6.50;99.90
64869;DHT22;51349;52.424;10.840;2022-11-24T19:19:28;6.60;99.90
64869;DHT22;51349;52.424;10.840;2022-11-24T19:24:33;6.60;99.90
64869;DHT22;51349;52.424;10.840;2022-11-24T19:29:33;6.60;99.90
64869;DHT22;51349;52.424;10.840;2022-11-24T19:34:34;6.40;99.90
64869;DHT22;51349;52.424;10.840;2022-11-24T19:39:35;6.40;99.90
64869;DHT22;51349;52.424;10.840;2022-11-24T19:44:35;6.40;99.90
64869;DHT22;51349;52.424;10.840;2022-11-24T19:49:36;6.40;99.90
64869;DHT22;51349;52.424;10.840;2022-11-24T19:54:36;6.40;99.90
64869;DHT22;51349;52.424;10.840;2022-11-24T19:59:37;6.50;99.90
64869;DHT22;51349;52.424;10.840;2022-11-24T20:04:37;6.50;99.90
64869;DHT22;51349;52.424;10.840;2022-11-24T20:09:40;6.60;99.90
64869;DHT22;51349;52.424;10.840;2022-11-24T20:14:41;6.60;99.90
64869;DHT22;51349;52.424;10.840;2022-11-24T20:19:42;6.60;99.90
64869;DHT22;51349;52.424;10.840;2022-11-24T20:24:43;6.50;99.90
64869;DHT22;51349;52.424;10.840;2022-11-24T20:29:44;6.50;99.90
64869;DHT22;51349;52.424;10.840;2022-11-24T20:34:46;6.60;99.90
64869;DHT22;51349;52.424;10.840;2022-11-24T20:39:46;6.60;99.90
64869;DHT22;51349;52.424;10.840;2022-11-24T20:44:47;6.60;99.90
64869;DHT22;51349;52.424;10.840;2022-11-24T20:49:47;6.60;99.90
64869;DHT22;51349;52.424;10.840;2022-11-24T20:54:48;6.70;99.90
64869;DHT22;51349;52.424;10.840;2022-11-24T20:59:49;6.60;99.90
64869;DHT22;51349;52.424;10.840;2022-11-24T21:04:51;6.60;99.90
64869;DHT22;51349;52.424;10.840;2022-11-24T21:09:52;6.70;99.90
64869;DHT22;51349;52.424;10.840;2022-11-24T21:14:52;6.70;99.90
64869;DHT22;51349;52.424;10.840;2022-11-24T21:19:53;6.60;99.90
64869;DHT22;51349;52.424;10.840;2022-11-24T21:24:54;6.50;99.90
64869;DHT22;51349;52.424;10.840;2022-11-24T21:29:54;6.20;99.90
64869;DHT22;51349;52.424;10.840;2022-11-24T21:34:55;5.70;99.90
64869;DHT22;51349;52.424;10.840;2022-11-24T21:39:55;5.50;99.90
64869;DHT22;51349;52.424;10.840;2022-11-24T21:44:56;5.30;99.90
64869;DHT22;51349;52.424;10.840;2022-11-24T21:49:59;5.00;99.90
64869;DHT22;51349;52.424;10.840;2022-11-24T21:55:00;4.80;99.90
64869;DHT22;51349;52.424;10.840;2022-11-24T22:00:01;4.80;99.90
64869;DHT22;51349;52.424;10.840;2022-11-24T22:05:01;4.60;99.90
64869;DHT22;51349;52.424;10.840;2022-11-24T22:10:02;4.40;99.90
64869;DHT22;51349;52.424;10.840;2022-11-24T22:15:03;4.20;99.90
64869;DHT22;51349;52.424;10.840;2022-11-24T22:20:04;4.10;99.90
64869;DHT22;51349;52.424;10.840;2022-11-24T22:25:08;3.90;99.90
64869;DHT22;51349;52.424;10.840;2022-11-24T22:30:09;3.70;99.90
64869;DHT22;51349;52.424;10.840;2022-11-24T22:35:09;3.60;99.90
64869;DHT22;51349;52.424;10.840;2022-11-24T22:40:10;3.50;99.90
64869;DHT22;51349;52.424;10.840;2022-11-24T22:45:11;3.30;99.90
64869;DHT22;51349;52.424;10.840;2022-11-24T22:50:12;3.10;99.90
64869;DHT22;51349;52.424;10.840;2022-11-24T22:55:12;3.00;99.90
64869;DHT22;51349;52.424;10.840;2022-11-24T23:00:16;2.90;99.90
64869;DHT22;51349;52.424;10.840;2022-11-24T23:05:17;2.80;99.90
64869;DHT22;51349;52.424;10.840;2022-11-24T23:10:18;2.70;99.90
64869;DHT22;51349;52.424;10.840;2022-11-24T23:15:18;2.50;99.90
64869;DHT22;51349;52.424;10.840;2022-11-24T23:20:19;2.40;99.90
64869;DHT22;51349;52.424;10.840;2022-11-24T23:25:20;2.30;99.90
64869;DHT22;51349;52.424;10.840;2022-11-24T23:30:20;2.30;99.90
64869;DHT22;51349;52.424;10.840;2022-11-24T23:35:21;2.10;99.90
64869;DHT22;51349;52.424;10.840;2022-11-24T23:40:21;2.10;99.90
64869;DHT22;51349;52.424;10.840;2022-11-24T23:45:22;2.00;99.90
64869;DHT22;51349;52.424;10.840;2022-11-24T23:50:22;1.90;99.90
64869;DHT22;51349;52.424;10.840;2022-11-24T23:55:23;1.80;99.90
